createdAt,value
2017-09-11T00:00:33.359Z,73.70
2017-09-11T00:03:08.065Z,73.50
2017-09-11T00:05:42.706Z,73.40
2017-09-11T00:08:19.482Z,73.30
2017-09-11T00:10:53.906Z,73.30
2017-09-11T00:13:28.858Z,73.70
2017-09-11T00:16:03.308Z,73.50
2017-09-11T00:18:37.947Z,73.40
2017-09-11T00:21:12.505Z,73.40
2017-09-11T00:23:50.149Z,73.70
2017-09-11T00:26:24.821Z,73.40
2017-09-11T00:28:59.462Z,73.80
2017-09-11T00:31:34.069Z,74.20
2017-09-11T00:34:08.570Z,74.20
2017-09-11T00:36:43.169Z,74.00
2017-09-11T00:39:17.820Z,74.00
2017-09-11T00:41:52.463Z,73.80
2017-09-11T00:44:26.804Z,74.00
2017-09-11T00:47:01.104Z,74.00
2017-09-11T00:49:35.656Z,74.00
2017-09-11T00:52:09.856Z,74.00
2017-09-11T00:54:43.747Z,74.00
2017-09-11T00:57:18.326Z,74.00
2017-09-11T00:59:52.838Z,73.80
2017-09-11T01:02:27.395Z,73.90
2017-09-11T01:05:03.070Z,73.90
2017-09-11T01:07:42.103Z,74.00
2017-09-11T01:10:18.158Z,74.30
2017-09-11T01:12:53.594Z,74.30
2017-09-11T01:15:28.970Z,74.00
2017-09-11T01:18:04.581Z,74.00
2017-09-11T01:20:41.624Z,73.60
2017-09-11T01:23:16.829Z,73.80
2017-09-11T01:25:51.055Z,73.70
2017-09-11T01:28:25.427Z,74.10
2017-09-11T01:30:59.534Z,74.10
2017-09-11T01:33:33.317Z,74.40
2017-09-11T01:36:07.850Z,74.60
2017-09-11T01:38:42.438Z,74.60
2017-09-11T01:41:19.228Z,74.90
2017-09-11T01:43:53.566Z,75.00
2017-09-11T01:46:28.889Z,75.00
2017-09-11T01:49:03.408Z,74.60
2017-09-11T01:51:37.757Z,74.50
2017-09-11T01:54:12.417Z,74.20
2017-09-11T01:56:46.990Z,74.10
2017-09-11T01:59:21.605Z,74.30
2017-09-11T02:01:57.671Z,74.10
2017-09-11T02:04:32.103Z,74.00
2017-09-11T02:07:06.730Z,73.90
2017-09-11T02:09:41.400Z,74.20
2017-09-11T02:12:15.901Z,74.20
2017-09-11T02:14:50.618Z,74.60
2017-09-11T02:17:25.074Z,73.90
2017-09-11T02:19:59.746Z,74.60
2017-09-11T02:22:34.289Z,74.70
2017-09-11T02:25:15.299Z,75.00
2017-09-11T02:27:49.942Z,75.20
2017-09-11T02:30:25.395Z,75.50
2017-09-11T02:33:00.042Z,75.40
2017-09-11T02:35:34.315Z,75.80
2017-09-11T02:38:08.940Z,75.80
2017-09-11T02:40:43.510Z,75.90
2017-09-11T02:43:17.955Z,75.70
2017-09-11T02:45:52.466Z,75.20
2017-09-11T02:48:28.613Z,74.90
2017-09-11T02:51:03.291Z,74.50
2017-09-11T02:53:37.946Z,74.60
2017-09-11T02:56:12.470Z,74.60
2017-09-11T02:58:46.954Z,74.30
2017-09-11T03:01:21.482Z,74.20
2017-09-11T03:03:55.947Z,74.10
2017-09-11T03:06:30.555Z,74.00
2017-09-11T03:09:04.486Z,74.00
2017-09-11T03:11:39.706Z,73.70
2017-09-11T03:14:14.313Z,73.70
2017-09-11T03:16:48.740Z,73.60
2017-09-11T03:19:23.182Z,73.40
2017-09-11T03:21:57.498Z,73.40
2017-09-11T03:24:32.203Z,73.20
2017-09-11T03:27:06.720Z,73.10
2017-09-11T03:29:44.026Z,73.00
2017-09-11T03:32:18.479Z,72.70
2017-09-11T03:34:53.809Z,72.60
2017-09-11T03:37:28.483Z,72.50
2017-09-11T03:40:13.333Z,72.40
2017-09-11T03:42:47.776Z,72.40
2017-09-11T03:45:22.367Z,72.40
2017-09-11T03:47:59.102Z,72.30
2017-09-11T03:50:33.708Z,72.20
2017-09-11T03:53:08.778Z,72.30
2017-09-11T03:55:43.253Z,72.20
2017-09-11T03:58:17.850Z,72.40
2017-09-11T04:00:52.433Z,72.40
2017-09-11T04:03:27.267Z,72.40
2017-09-11T04:06:01.954Z,72.00
2017-09-11T04:08:36.599Z,72.10
2017-09-11T04:11:11.184Z,72.90
2017-09-11T04:13:45.723Z,72.10
2017-09-11T04:16:20.346Z,72.50
2017-09-11T04:18:54.738Z,72.60
2017-09-11T04:21:29.547Z,72.70
2017-09-11T04:24:03.939Z,72.80
2017-09-11T04:26:38.611Z,72.90
2017-09-11T04:29:13.132Z,72.90
2017-09-11T04:31:47.714Z,72.90
2017-09-11T04:34:22.207Z,73.30
2017-09-11T04:36:56.794Z,73.30
2017-09-11T04:39:31.337Z,73.40
2017-09-11T04:42:05.754Z,73.50
2017-09-11T04:44:40.375Z,73.80
2017-09-11T04:47:14.915Z,73.90
2017-09-11T04:49:49.340Z,74.00
2017-09-11T04:52:23.948Z,74.00
2017-09-11T04:54:58.492Z,74.10
2017-09-11T04:57:33.111Z,74.20
2017-09-11T05:00:15.562Z,74.20
2017-09-11T05:02:50.051Z,74.00
2017-09-11T05:05:24.296Z,73.60
2017-09-11T05:07:58.446Z,73.40
2017-09-11T05:10:32.965Z,73.20
2017-09-11T05:13:07.332Z,72.90
2017-09-11T05:15:41.849Z,72.80
2017-09-11T05:18:16.427Z,72.60
2017-09-11T05:20:51.004Z,72.70
2017-09-11T05:23:25.489Z,72.40
2017-09-11T05:26:00.150Z,72.10
2017-09-11T05:28:34.682Z,72.00
2017-09-11T05:31:09.315Z,71.70
2017-09-11T05:33:43.965Z,72.00
2017-09-11T05:36:18.568Z,72.30
2017-09-11T05:38:52.988Z,72.60
2017-09-11T05:41:27.418Z,73.00
2017-09-11T05:44:02.042Z,73.10
2017-09-11T05:46:36.610Z,72.90
2017-09-11T05:49:11.103Z,72.80
2017-09-11T05:51:45.655Z,72.70
2017-09-11T05:54:20.077Z,72.30
2017-09-11T05:56:54.771Z,71.50
2017-09-11T05:59:29.429Z,70.70
2017-09-11T06:02:03.877Z,70.60
2017-09-11T06:04:38.553Z,70.80
2017-09-11T06:07:13.191Z,70.00
2017-09-11T06:09:47.935Z,69.40
2017-09-11T06:12:22.566Z,69.10
2017-09-11T06:14:57.126Z,69.20
2017-09-11T06:17:31.768Z,69.20
2017-09-11T06:20:14.510Z,68.90
2017-09-11T06:22:48.990Z,68.00
2017-09-11T06:25:23.542Z,67.30
2017-09-11T06:27:58.119Z,66.30
2017-09-11T06:30:33.046Z,65.50
2017-09-11T06:33:07.517Z,64.90
2017-09-11T06:35:42.140Z,64.20
2017-09-11T06:38:16.761Z,63.50
2017-09-11T06:40:51.271Z,62.60
2017-09-11T06:43:25.857Z,61.90
2017-09-11T06:46:00.419Z,61.30
2017-09-11T06:48:34.897Z,60.70
2017-09-11T06:51:09.494Z,60.70
2017-09-11T06:53:44.167Z,60.40
2017-09-11T06:56:18.799Z,60.20
2017-09-11T06:58:53.363Z,60.10
2017-09-11T07:01:27.971Z,59.60
2017-09-11T07:04:02.645Z,59.60
2017-09-11T07:06:37.238Z,58.80
2017-09-11T07:09:11.950Z,58.10
2017-09-11T07:11:46.566Z,57.70
2017-09-11T07:14:20.991Z,57.60
2017-09-11T07:16:56.378Z,55.60
2017-09-11T07:19:30.955Z,55.60
2017-09-11T07:22:05.628Z,54.80
2017-09-11T07:24:40.334Z,54.00
2017-09-11T07:27:14.778Z,53.90
2017-09-11T07:29:49.337Z,53.30
2017-09-11T07:32:23.974Z,53.20
2017-09-11T07:34:58.418Z,53.30
2017-09-11T07:37:33.030Z,52.90
2017-09-11T07:40:14.283Z,52.30
2017-09-11T07:42:48.882Z,51.70
2017-09-11T07:45:23.473Z,50.50
2017-09-11T07:47:58.081Z,49.50
2017-09-11T07:50:32.698Z,48.00
2017-09-11T07:53:07.258Z,47.20
2017-09-11T07:55:41.803Z,47.30
2017-09-11T07:58:16.834Z,46.90
2017-09-11T08:00:51.352Z,47.20
2017-09-11T08:03:26.008Z,47.40
2017-09-11T08:06:00.511Z,48.10
2017-09-11T08:08:35.115Z,48.80
2017-09-11T08:11:09.710Z,49.20
2017-09-11T08:13:44.399Z,49.40
2017-09-11T08:16:18.953Z,49.60
2017-09-11T08:18:53.638Z,50.00
2017-09-11T08:21:28.218Z,50.20
2017-09-11T08:24:02.727Z,50.20
2017-09-11T08:26:37.282Z,50.10
2017-09-11T08:29:11.779Z,50.00
2017-09-11T08:31:46.412Z,50.20
2017-09-11T08:34:20.886Z,50.20
2017-09-11T08:36:55.209Z,50.40
2017-09-11T08:39:29.806Z,50.50
2017-09-11T08:42:04.354Z,50.20
2017-09-11T08:44:38.965Z,50.40
2017-09-11T08:47:13.498Z,50.60
2017-09-11T08:49:48.165Z,50.30
2017-09-11T08:52:22.690Z,49.40
2017-09-11T08:54:57.300Z,48.60
2017-09-11T09:01:08.998Z,47.40
2017-09-11T09:03:43.581Z,47.10
2017-09-11T09:06:18.069Z,47.00
2017-09-11T09:08:52.623Z,46.60
2017-09-11T09:11:27.372Z,46.50
2017-09-11T09:14:01.994Z,46.40
2017-09-11T09:16:36.546Z,46.60
2017-09-11T09:19:11.098Z,47.10
2017-09-11T09:21:45.706Z,47.50
2017-09-11T09:24:20.122Z,47.60
2017-09-11T09:26:54.667Z,47.70
2017-09-11T09:29:29.190Z,48.10
2017-09-11T09:32:03.698Z,48.50
2017-09-11T09:34:38.451Z,48.40
2017-09-11T09:37:12.870Z,48.20
2017-09-11T09:39:47.357Z,47.50
2017-09-11T09:42:22.010Z,46.80
2017-09-11T09:44:56.439Z,46.60
2017-09-11T09:47:31.026Z,46.70
2017-09-11T09:50:14.484Z,46.80
2017-09-11T09:52:49.183Z,46.80
2017-09-11T09:55:23.841Z,46.80
2017-09-11T09:57:58.341Z,47.20
2017-09-11T10:00:33.130Z,47.80
2017-09-11T10:03:07.815Z,48.40
2017-09-11T10:05:42.359Z,49.00
2017-09-11T10:08:17.073Z,49.40
2017-09-11T10:10:51.599Z,50.00
2017-09-11T10:13:26.179Z,50.50
2017-09-11T10:16:00.702Z,50.80
2017-09-11T10:18:35.347Z,51.60
2017-09-11T10:21:09.903Z,52.30
2017-09-11T10:23:44.398Z,52.80
2017-09-11T10:26:18.999Z,53.60
2017-09-11T10:28:53.569Z,54.00
2017-09-11T10:31:27.984Z,54.80
2017-09-11T10:34:02.566Z,54.80
2017-09-11T10:36:37.074Z,55.20
2017-09-11T10:39:11.775Z,55.60
2017-09-11T10:41:46.313Z,55.60
2017-09-11T10:44:20.870Z,55.80
2017-09-11T10:46:55.422Z,55.90
2017-09-11T10:49:30.070Z,55.80
2017-09-11T10:52:04.539Z,55.70
2017-09-11T10:54:39.272Z,55.60
2017-09-11T10:57:13.818Z,55.30
2017-09-11T10:59:48.298Z,54.90
2017-09-11T11:02:22.898Z,55.10
2017-09-11T11:04:57.561Z,54.90
2017-09-11T11:07:31.948Z,55.00
2017-09-11T11:10:13.797Z,55.10
2017-09-11T11:12:48.510Z,55.60
2017-09-11T11:15:23.066Z,56.00
2017-09-11T11:17:57.703Z,56.50
2017-09-11T11:20:32.350Z,56.80
2017-09-11T11:23:06.928Z,58.20
2017-09-11T11:25:41.478Z,58.10
2017-09-11T11:28:16.107Z,58.40
2017-09-11T11:30:50.643Z,59.20
2017-09-11T11:33:25.109Z,59.60
2017-09-11T11:35:59.647Z,59.90
2017-09-11T11:38:34.137Z,60.40
2017-09-11T11:41:08.664Z,61.30
2017-09-11T11:43:43.226Z,61.20
2017-09-11T11:46:17.712Z,61.70
2017-09-11T11:48:52.341Z,61.40
2017-09-11T11:51:26.874Z,61.80
2017-09-11T11:54:01.389Z,61.80
2017-09-11T11:56:36.001Z,62.30
2017-09-11T11:59:10.574Z,62.00
2017-09-11T12:01:45.191Z,61.90
2017-09-11T12:04:19.643Z,61.50
2017-09-11T12:06:54.254Z,61.40
2017-09-11T12:09:28.755Z,60.80
2017-09-11T12:12:03.353Z,60.30
2017-09-11T12:14:37.854Z,60.00
2017-09-11T12:17:12.448Z,60.00
2017-09-11T12:19:47.176Z,60.20
2017-09-11T12:22:21.747Z,60.70
2017-09-11T12:24:56.399Z,60.80
2017-09-11T12:27:31.032Z,61.00
2017-09-11T12:30:14.915Z,60.90
2017-09-11T12:32:49.491Z,60.50
2017-09-11T12:35:23.870Z,60.10
2017-09-11T12:37:58.244Z,60.20
2017-09-11T12:40:32.726Z,60.50
2017-09-11T12:43:07.167Z,60.70
2017-09-11T12:45:42.505Z,61.20
2017-09-11T12:48:17.156Z,61.10
2017-09-11T12:50:51.772Z,61.20
2017-09-11T12:53:26.215Z,61.60
2017-09-11T12:56:00.775Z,61.70
2017-09-11T12:58:35.383Z,61.60
2017-09-11T13:01:09.907Z,61.40
2017-09-11T13:03:44.507Z,61.80
2017-09-11T13:06:19.056Z,61.50
2017-09-11T13:08:53.550Z,62.00
2017-09-11T13:11:28.063Z,62.90
2017-09-11T13:14:03.019Z,63.50
2017-09-11T13:16:37.594Z,64.10
2017-09-11T13:19:12.219Z,64.50
2017-09-11T13:21:46.762Z,64.80
2017-09-11T13:24:21.259Z,65.10
2017-09-11T13:26:55.781Z,65.40
2017-09-11T13:29:30.437Z,66.00
2017-09-11T13:32:05.022Z,66.30
2017-09-11T13:34:39.566Z,66.70
2017-09-11T13:37:14.412Z,66.50
2017-09-11T13:39:48.817Z,67.10
2017-09-11T13:42:23.362Z,66.80
2017-09-11T13:44:57.894Z,66.50
2017-09-11T13:47:32.523Z,66.30
2017-09-11T13:50:14.090Z,66.40
2017-09-11T13:52:49.190Z,66.20
2017-09-11T13:55:23.998Z,66.30
2017-09-11T13:57:58.658Z,66.70
2017-09-11T14:00:33.286Z,67.10
2017-09-11T14:03:07.906Z,67.30
2017-09-11T14:05:42.323Z,67.30
2017-09-11T14:08:16.757Z,68.10
2017-09-11T14:10:51.235Z,68.10
2017-09-11T14:13:25.572Z,67.90
2017-09-11T14:16:00.131Z,67.70
2017-09-11T14:18:34.826Z,67.60
2017-09-11T14:21:10.954Z,68.10
2017-09-11T14:23:45.527Z,68.20
2017-09-11T14:26:20.096Z,68.20
2017-09-11T14:28:54.986Z,68.40
2017-09-11T14:31:29.526Z,68.30
2017-09-11T14:34:04.235Z,68.30
2017-09-11T14:36:38.689Z,68.60
2017-09-11T14:39:13.046Z,68.50
2017-09-11T14:41:47.761Z,68.50
2017-09-11T14:44:22.381Z,68.50
2017-09-11T14:46:57.006Z,68.70
2017-09-11T14:49:31.467Z,68.90
2017-09-11T14:52:05.997Z,68.80
2017-09-11T14:54:40.624Z,68.90
2017-09-11T14:57:15.223Z,68.60
2017-09-11T14:59:49.766Z,68.50
2017-09-11T15:02:25.194Z,68.20
2017-09-11T15:04:59.487Z,68.20
2017-09-11T15:07:33.819Z,68.50
2017-09-11T15:10:22.126Z,68.70
2017-09-11T15:12:56.579Z,69.20
2017-09-11T15:15:31.023Z,69.10
2017-09-11T15:18:05.511Z,68.60
2017-09-11T15:20:40.067Z,68.70
2017-09-11T15:23:16.044Z,69.30
2017-09-11T15:25:50.776Z,69.10
2017-09-11T15:28:25.277Z,68.40
2017-09-11T15:30:59.801Z,68.40
2017-09-11T15:33:34.474Z,67.80
2017-09-11T15:36:09.036Z,68.40
2017-09-11T15:38:43.339Z,68.30
2017-09-11T15:41:17.850Z,67.90
2017-09-11T15:43:52.548Z,68.30
2017-09-11T15:46:27.226Z,67.90
2017-09-11T15:49:01.689Z,68.10
2017-09-11T15:51:36.257Z,67.90
2017-09-11T15:54:10.478Z,67.50
2017-09-11T15:56:45.215Z,67.70
2017-09-11T15:59:19.727Z,68.10
2017-09-11T16:01:54.413Z,68.40
2017-09-11T16:04:28.867Z,67.80
2017-09-11T16:07:03.521Z,67.80
2017-09-11T16:09:38.082Z,68.70
2017-09-11T16:12:12.738Z,68.20
2017-09-11T16:14:48.073Z,68.10
2017-09-11T16:17:22.502Z,68.00
2017-09-11T16:19:56.964Z,67.60
2017-09-11T16:22:31.475Z,67.40
2017-09-11T16:25:06.266Z,67.70
2017-09-11T16:27:40.614Z,67.40
2017-09-11T16:30:15.503Z,66.90
2017-09-11T16:32:49.734Z,67.00
2017-09-11T16:35:24.365Z,66.80
2017-09-11T16:37:58.531Z,66.20
2017-09-11T16:40:33.946Z,66.70
2017-09-11T16:43:08.912Z,66.60
2017-09-11T16:45:43.643Z,66.90
2017-09-11T16:48:18.301Z,66.70
2017-09-11T16:50:52.947Z,67.00
2017-09-11T16:53:27.772Z,67.20
2017-09-11T16:56:02.187Z,67.20
2017-09-11T16:58:36.705Z,67.10
2017-09-11T17:01:11.442Z,67.30
2017-09-11T17:03:45.974Z,67.20
2017-09-11T17:06:20.542Z,67.40
2017-09-11T17:08:55.181Z,67.30
2017-09-11T17:11:29.809Z,67.30
2017-09-11T17:14:04.391Z,67.40
2017-09-11T17:16:38.950Z,67.30
2017-09-11T17:19:13.890Z,67.50
2017-09-11T17:21:48.402Z,67.10
2017-09-11T17:24:22.969Z,67.40
2017-09-11T17:26:57.530Z,67.40
2017-09-11T17:29:32.191Z,67.50
2017-09-11T17:32:06.974Z,67.60
2017-09-11T17:34:41.671Z,67.50
2017-09-11T17:37:16.095Z,67.10
2017-09-11T17:39:50.378Z,66.70
2017-09-11T17:42:24.797Z,66.80
2017-09-11T17:44:59.577Z,66.40
2017-09-11T17:47:33.942Z,66.60
2017-09-11T17:50:15.295Z,66.00
2017-09-11T17:52:50.233Z,66.70
2017-09-11T17:55:24.925Z,66.90
2017-09-11T17:57:59.440Z,67.80
2017-09-11T18:00:34.003Z,68.30
2017-09-11T18:03:08.690Z,68.40
2017-09-11T18:05:43.306Z,69.30
2017-09-11T18:08:17.955Z,69.30
2017-09-11T18:10:52.467Z,69.00
2017-09-11T18:13:26.850Z,69.60
2017-09-11T18:16:01.734Z,69.70
2017-09-11T18:18:36.202Z,70.10
2017-09-11T18:21:10.761Z,70.40
2017-09-11T18:23:45.459Z,70.70
2017-09-11T18:26:20.071Z,70.50
2017-09-11T18:28:54.545Z,70.30
2017-09-11T18:31:29.039Z,69.80
2017-09-11T18:34:05.162Z,69.90
2017-09-11T18:36:39.718Z,69.80
2017-09-11T18:39:15.714Z,70.40
2017-09-11T18:41:50.449Z,70.60
2017-09-11T18:44:25.023Z,70.60
2017-09-11T18:46:59.673Z,70.70
2017-09-11T18:49:34.452Z,70.90
2017-09-11T18:52:09.045Z,71.70
2017-09-11T18:54:43.787Z,71.90
2017-09-11T18:57:18.954Z,71.50
2017-09-11T18:59:53.991Z,72.00
2017-09-11T19:02:28.565Z,72.10
2017-09-11T19:05:04.303Z,71.90
2017-09-11T19:07:38.801Z,71.50
2017-09-11T19:10:15.998Z,70.90
2017-09-11T19:12:50.461Z,71.20
2017-09-11T19:15:24.981Z,71.70
2017-09-11T19:17:59.707Z,71.30
2017-09-11T19:20:34.303Z,71.40
2017-09-11T19:23:08.751Z,71.50
2017-09-11T19:25:43.394Z,71.70
2017-09-11T19:28:17.974Z,71.70
2017-09-11T19:30:52.739Z,72.00
2017-09-11T19:33:27.275Z,71.60
2017-09-11T19:36:01.942Z,72.40
2017-09-11T19:38:36.459Z,71.90
2017-09-11T19:41:10.913Z,71.70
2017-09-11T19:43:45.357Z,71.90
2017-09-11T19:46:20.053Z,71.30
2017-09-11T19:48:54.544Z,72.50
2017-09-11T19:51:29.166Z,72.20
2017-09-11T19:54:03.882Z,71.50
2017-09-11T19:56:38.446Z,72.40
2017-09-11T19:59:13.746Z,73.50
2017-09-11T20:01:48.550Z,73.40
2017-09-11T20:04:23.137Z,73.30
2017-09-11T20:06:57.648Z,73.60
2017-09-11T20:09:32.158Z,73.70
2017-09-11T20:12:06.953Z,74.00
2017-09-11T20:14:41.623Z,72.90
2017-09-11T20:17:46.474Z,73.20
2017-09-11T20:20:21.059Z,72.90
2017-09-11T20:22:55.686Z,72.50
2017-09-11T20:25:30.270Z,72.70
2017-09-11T20:28:04.850Z,72.80
2017-09-11T20:30:39.417Z,72.30
2017-09-11T20:33:14.655Z,72.30
2017-09-11T20:35:49.226Z,72.30
2017-09-11T20:38:23.824Z,72.20
2017-09-11T20:40:58.190Z,72.00
2017-09-11T20:43:32.794Z,71.60
2017-09-11T20:46:07.296Z,71.50
2017-09-11T20:48:42.461Z,71.10
2017-09-11T20:51:16.970Z,71.10
2017-09-11T20:53:51.676Z,70.60
2017-09-11T20:56:27.256Z,70.60
2017-09-11T20:59:05.872Z,70.60
2017-09-11T21:01:40.614Z,70.70
2017-09-11T21:04:15.415Z,70.40
2017-09-11T21:06:50.730Z,70.80
2017-09-11T21:09:25.254Z,70.70
2017-09-11T21:12:00.029Z,71.20
2017-09-11T21:14:34.258Z,71.50
2017-09-11T21:17:08.826Z,71.20
2017-09-11T21:19:43.224Z,71.20
2017-09-11T21:22:17.795Z,71.30
2017-09-11T21:24:52.386Z,71.10
2017-09-11T21:27:26.875Z,71.20
2017-09-11T21:30:01.479Z,70.90
2017-09-11T21:32:37.499Z,70.60
2017-09-11T21:35:14.834Z,70.50
2017-09-11T21:37:49.463Z,70.60
2017-09-11T21:40:23.969Z,71.10
2017-09-11T21:42:58.458Z,71.10
2017-09-11T21:45:33.050Z,70.80
2017-09-11T21:48:07.464Z,70.50
2017-09-11T21:50:41.971Z,70.40
2017-09-11T21:53:16.906Z,70.50
2017-09-11T21:55:51.413Z,70.40
2017-09-11T21:58:25.842Z,70.70
2017-09-11T22:01:00.423Z,70.80
2017-09-11T22:03:34.898Z,71.00
2017-09-11T22:06:09.413Z,71.10
2017-09-11T22:08:43.994Z,71.40
2017-09-11T22:11:18.577Z,71.30
2017-09-11T22:13:53.338Z,71.30
2017-09-11T22:16:28.010Z,71.40
2017-09-11T22:19:02.578Z,71.10
2017-09-11T22:21:37.063Z,71.50
2017-09-11T22:24:11.598Z,71.40
2017-09-11T22:26:46.311Z,70.90
2017-09-11T22:29:20.763Z,70.80
2017-09-11T22:31:55.358Z,70.70
2017-09-11T22:34:29.931Z,70.10
2017-09-11T22:37:04.712Z,70.00
2017-09-11T22:39:39.976Z,69.90
2017-09-11T22:42:14.434Z,69.90
2017-09-11T22:44:49.460Z,69.50
2017-09-11T22:47:23.918Z,69.50
2017-09-11T22:49:58.332Z,69.80
2017-09-11T22:52:32.827Z,69.80
2017-09-11T22:55:14.374Z,69.80
2017-09-11T22:57:48.890Z,70.00
2017-09-11T23:00:23.306Z,70.10
2017-09-11T23:02:57.847Z,70.10
2017-09-11T23:05:33.221Z,70.80
2017-09-11T23:08:07.851Z,70.80
2017-09-11T23:10:42.678Z,71.10
2017-09-11T23:13:17.207Z,71.00
2017-09-11T23:15:51.767Z,71.10
2017-09-11T23:18:26.251Z,71.30
2017-09-11T23:21:00.829Z,71.30
2017-09-11T23:23:35.348Z,71.60
2017-09-11T23:26:09.950Z,71.40
2017-09-11T23:28:44.707Z,71.50
2017-09-11T23:31:19.330Z,71.60
2017-09-11T23:33:53.886Z,71.80
2017-09-11T23:36:28.358Z,72.10
2017-09-11T23:39:02.920Z,72.90
2017-09-11T23:41:37.403Z,73.40
2017-09-11T23:44:12.007Z,73.70
2017-09-11T23:46:46.722Z,74.20
2017-09-11T23:49:21.261Z,74.00
2017-09-11T23:51:55.810Z,74.00
2017-09-11T23:54:30.338Z,74.10
2017-09-11T23:57:05.083Z,74.00
2017-09-11T23:59:39.534Z,74.00
